BIRK

Reykjavik Airport

Airport
ICAO code
BIRK
IATA Code
RKV
Summary
ICAO Region
NAT
ICAO Territory
Location

Reykjavik, Hofuoborgarsvaoio

Serving
Reykjavik
Elevation
48 ft
Coordinates
64° 7' 48" N , 21° 56' 26" W
KCC
Airport WX
Volcanic Ash
Metar
Observation
BIRK 281500Z 08013KT CAVOK 03/M08 Q1010
Station
Reykjavik
Date/Time
2023-03-28 15:00:00
Wind direction
80°
Wind speed
13 kts
Lowest cloud amount
clouds and visibility OK
Temperature
3°C
Dew point
-8°C
Humidity
44%
QNH
1010 hPa
Weather condition
n/a

Description

International airport serving the Icelandic capital, Reykjavik.

Climatology

Subpolar Oceanic climate (Köppen climate classification Cfc) - uniform precipitation distribution, temperatures are moderated by the proximity of the ocean and warm currents - cool summers and comparatively mild winters.

Runways

Designator Length Width Surface Rops
6/24 960 30 ASP Yes/Yes
13/31 1230 45 ASP Yes/Yes
1/19 1567 45 ASP Yes/Yes

Airport map

Aerial View

SKYbrary Partners:

Safety knowledge contributed by: